Latest Weather Observations for Little Bay

IDN60901

Issued at 10:01 pm EST Thursday 22 June 2017 (issued every 10 minutes, with the page automatically refreshed every 10 minutes)

About weather observations | Map of Sydney area stations | Latest observations for Sydney area | Other Formats
Station Details ID: 066051 Name: LITTLE BAY (THE COAST GOLF CLUB) Lat: -33.98 Lon: 151.25 Height: 22.0 m
Data from the previous 72 hours. | See also: Recent months for locations in New South Wales
Date/Time
EST
Temp
°C
App
Temp
°C
Dew
Point
°C
Rel
Hum
%
Delta-T
°C
Wind Press
QNH
hPa
Press
MSL
hPa
Rain since
9am
mm
Dir  Spd
km/h
Gust
km/h
Spd
kts
Gust
kts
22/10:00pm - - - - - NW 7 7 4 4 - - -
22/09:30pm - - - - - WNW 6 6 3 3 - - -
22/09:00pm - - - - - NW 6 7 3 4 - - -
22/08:30pm - - - - - NNW 6 6 3 3 - - -
22/08:00pm - - - - - NNW 2 4 1 2 - - -
22/07:30pm - - - - - N 4 4 2 2 - - -
22/07:00pm - - - - - N 4 6 2 3 - - -
22/06:30pm - - - - - CALM 0 2 0 1 - - -
22/06:00pm - - - - - CALM 0 0 0 0 - - -
22/05:30pm - - - - - E 2 4 1 2 - - -
22/05:00pm - - - - - CALM 0 2 0 1 - - -
22/04:30pm - - - - - CALM 0 0 0 0 - - -
22/04:00pm - - - - - SSE 2 4 1 2 - - -
22/03:30pm - - - - - S 6 9 3 5 - - -
22/03:00pm - - - - - S 6 9 3 5 - - -
22/02:30pm - - - - - SSE 9 11 5 6 - - -
22/02:00pm - - - - - SSE 7 13 4 7 - - -
22/01:30pm - - - - - SSE 11 17 6 9 - - -
22/01:00pm - - - - - S 13 19 7 10 - - -
22/12:30pm - - - - - SSW 13 17 7 9 - - -
22/12:00pm - - - - - SSW 13 19 7 10 - - -
22/11:30am - - - - - SSW 17 22 9 12 - - -
22/11:00am - - - - - SSW 17 22 9 12 - - -
22/10:30am - - - - - SSW 13 19 7 10 - - -
22/10:00am - - - - - WSW 9 17 5 9 - - -
22/09:30am - - - - - WSW 9 15 5 8 - - -
22/09:00am - - - - - W 7 13 4 7 - - -
22/08:30am - - - - - W 13 17 7 9 - - -
22/08:00am - - - - - W 13 17 7 9 - - -
22/07:30am - - - - - W 11 15 6 8 - - -
22/07:00am - - - - - WNW 9 13 5 7 - - -
22/06:30am - - - - - WNW 13 17 7 9 - - -
22/06:00am - - - - - W 11 15 6 8 - - -
22/05:30am - - - - - WSW 11 20 6 11 - - -
22/05:00am - - - - - SSW 11 17 6 9 - - -
22/04:30am - - - - - SSW 20 30 11 16 - - -
22/04:00am - - - - - SSW 20 30 11 16 - - -
22/03:30am - - - - - SSW 20 30 11 16 - - -
22/03:00am - - - - - SSW 15 24 8 13 - - -
22/02:30am - - - - - SW 15 24 8 13 - - -
22/02:00am - - - - - W 11 17 6 9 - - -
22/01:30am - - - - - WSW 11 15 6 8 - - -
22/01:00am - - - - - SW 13 19 7 10 - - -
22/12:30am - - - - - WSW 11 17 6 9 - - -
22/12:00am - - - - - WSW 11 15 6 8 - - -
 
Date/Time
EST
Temp
°C
App
Temp
°C
Dew
Point
°C
Rel
Hum
%
Delta-T
°C
Wind Press
QNH
hPa
Press
MSL
hPa
Rain since
9am
mm
Dir  Spd
km/h
Gust
km/h
Spd
kts
Gust
kts
21/11:30pm - - - - - WSW 11 17 6 9 - - -
21/11:00pm - - - - - WSW 13 17 7 9 - - -
21/10:30pm - - - - - WSW 13 19 7 10 - - -
21/10:00pm - - - - - SSW 11 20 6 11 - - -
21/09:30pm - - - - - S 17 26 9 14 - - -
21/09:00pm - - - - - S 20 28 11 15 - - -
21/08:30pm - - - - - S 17 24 9 13 - - -
21/08:00pm - - - - - SSE 19 24 10 13 - - -
21/07:30pm - - - - - S 20 32 11 17 - - -
21/07:00pm - - - - - S 24 32 13 17 - - -
21/06:30pm - - - - - S 20 30 11 16 - - -
21/06:00pm - - - - - SSE 20 26 11 14 - - -
21/05:30pm - - - - - S 19 28 10 15 - - -
21/05:00pm - - - - - S 19 26 10 14 - - -
21/04:30pm - - - - - S 19 26 10 14 - - -
21/04:00pm - - - - - SSE 17 22 9 12 - - -
21/03:30pm - - - - - S 19 26 10 14 - - -
21/03:00pm - - - - - S 24 33 13 18 - - -
21/02:30pm - - - - - S 22 35 12 19 - - -
21/02:00pm - - - - - S 26 35 14 19 - - -
21/01:30pm - - - - - S 26 39 14 21 - - -
21/01:00pm - - - - - SSW 28 37 15 20 - - -
21/12:30pm - - - - - SSW 26 39 14 21 - - -
21/12:00pm - - - - - SSW 24 35 13 19 - - -
21/11:30am - - - - - SSW 24 33 13 18 - - -
21/11:00am - - - - - SSW 20 30 11 16 - - -
21/10:30am - - - - - SSW 20 32 11 17 - - -
21/10:00am - - - - - W 13 20 7 11 - - -
21/09:30am - - - - - WNW 11 19 6 10 - - -
21/09:00am - - - - - WNW 11 17 6 9 - - -
21/08:30am - - - - - W 11 15 6 8 - - -
21/08:00am - - - - - WNW 11 15 6 8 - - -
21/07:30am - - - - - WNW 13 17 7 9 - - -
21/07:00am - - - - - W 15 19 8 10 - - -
21/06:30am - - - - - WNW 15 20 8 11 - - -
21/06:00am - - - - - WNW 13 19 7 10 - - -
21/05:30am - - - - - WNW 15 19 8 10 - - -
21/05:00am - - - - - WNW 13 19 7 10 - - -
21/04:30am - - - - - WNW 11 17 6 9 - - -
21/04:00am - - - - - WNW 11 17 6 9 - - -
21/03:30am - - - - - WNW 13 17 7 9 - - -
21/03:00am - - - - - WNW 11 17 6 9 - - -
21/02:30am - - - - - WNW 13 17 7 9 - - -
21/02:00am - - - - - WNW 11 17 6 9 - - -
21/01:30am - - - - - WNW 11 15 6 8 - - -
21/01:00am - - - - - WNW 11 15 6 8 - - -
21/12:30am - - - - - WNW 11 15 6 8 - - -
21/12:00am - - - - - WNW 9 13 5 7 - - -
 
Date/Time
EST
Temp
°C
App
Temp
°C
Dew
Point
°C
Rel
Hum
%
Delta-T
°C
Wind Press
QNH
hPa
Press
MSL
hPa
Rain since
9am
mm
Dir  Spd
km/h
Gust
km/h
Spd
kts
Gust
kts
20/11:30pm - - - - - WNW 11 15 6 8 - - -
20/11:00pm - - - - - WNW 9 13 5 7 - - -
20/10:30pm - - - - - NW 7 11 4 6 - - -
20/10:00pm - - - - - NW 9 11 5 6 - - -
20/09:30pm - - - - - WNW 9 11 5 6 - - -
20/09:00pm - - - - - W 9 9 5 5 - - -
20/08:30pm - - - - - WNW 6 6 3 3 - - -
20/08:00pm - - - - - CALM 0 0 0 0 - - -
20/07:30pm - - - - - CALM 0 0 0 0 - - -
20/07:00pm - - - - - CALM 0 0 0 0 - - -
20/06:30pm - - - - - CALM 0 0 0 0 - - -
20/06:00pm - - - - - SW 4 4 2 2 - - -
20/05:30pm - - - - - SW 4 6 2 3 - - -
20/05:00pm - - - - - SW 2 4 1 2 - - -
20/04:30pm - - - - - SSW 4 6 2 3 - - -
20/04:00pm - - - - - SSW 4 7 2 4 - - -
20/03:30pm - - - - - SSW 7 11 4 6 - - -
20/03:00pm - - - - - SSW 9 13 5 7 - - -
20/02:30pm - - - - - SSW 11 17 6 9 - - -
20/02:00pm - - - - - S 13 17 7 9 - - -
20/01:30pm - - - - - S 15 22 8 12 - - -
20/01:00pm - - - - - S 15 20 8 11 - - -
20/12:30pm - - - - - S 17 26 9 14 - - -
20/12:00pm - - - - - S 17 24 9 13 - - -
20/11:30am - - - - - SSW 19 26 10 14 - - -
20/11:00am - - - - - SSW 19 26 10 14 - - -
20/10:30am - - - - - SSW 19 26 10 14 - - -
20/10:00am - - - - - SSW 17 26 9 14 - - -
20/09:30am - - - - - SSW 17 24 9 13 - - -
20/09:00am - - - - - W 13 17 7 9 - - -
20/08:30am - - - - - W 13 22 7 12 - - -
20/08:00am - - - - - WSW 11 15 6 8 - - -
20/07:30am - - - - - WSW 11 26 6 14 - - -
20/07:00am - - - - - S 20 28 11 15 - - -
20/06:30am - - - - - S 19 28 10 15 - - -
20/06:00am - - - - - S 11 15 6 8 - - -
20/05:30am - - - - - SSE 17 20 9 11 - - -
20/05:00am - - - - - S 20 30 11 16 - - -
20/04:30am - - - - - S 19 30 10 16 - - -
20/04:00am - - - - - SW 7 19 4 10 - - -
20/03:30am - - - - - SSW 11 19 6 10 - - -
20/03:00am - - - - - SW 15 20 8 11 - - -
20/02:30am - - - - - SSW 15 24 8 13 - - -
20/02:00am - - - - - S 15 19 8 10 - - -
20/01:30am - - - - - S 19 26 10 14 - - -
20/01:00am - - - - - S 22 32 12 17 - - -
20/12:30am - - - - - SSW 17 22 9 12 - - -
20/12:00am - - - - - SSW 15 22 8 12 - - -
 
Date/Time
EST
Temp
°C
App
Temp
°C
Dew
Point
°C
Rel
Hum
%
Delta-T
°C
Wind Press
QNH
hPa
Press
MSL
hPa
Rain since
9am
mm
Dir  Spd
km/h
Gust
km/h
Spd
kts
Gust
kts
19/11:30pm - - - - - SSW 13 22 7 12 - - -
19/11:00pm - - - - - SSE 15 20 8 11 - - -
19/10:30pm - - - - - SE 24 32 13 17 - - -

Latest Capital City Observations: Canberra | Sydney | Melbourne | Brisbane | Adelaide | Perth | Hobart | Darwin

Other Formats:

Comma delimited format used in spreadsheet applications
http://www.bom.gov.au/fwo/IDN60901/IDN60901.94780.axf

JavaScript Object Notation format (JSON) in row-major order
http://www.bom.gov.au/fwo/IDN60901/IDN60901.94780.json